Time;durP1;ratioP1;P1;durP2;ratioP2;P2;SDS_P1;SDS_P2;PMS_P1;PMS_P2;Temp;Humidity;BMP_temperature;BMP_pressure;BME280_temperature;BME280_humidity;BME280_pressure;Samples;Min_cycle;Max_cycle;Signal;HPM_P1;HPM_P2
2023/04/21 00:01:33;;;;;;;32.42;23.45;;;;;;;;;;5030071;28;20033;-65
2023/04/21 00:03:59;;;;;;;36.88;24.05;;;;;;;;;;5031184;28;20450;-66
2023/04/21 00:06:27;;;;;;;33.92;23.80;;;;;;;;;;5029998;28;20033;-65
2023/04/21 00:08:53;;;;;;;33.00;23.73;;;;;;;;;;5020145;23;20046;-59
2023/04/21 00:11:19;;;;;;;33.00;24.10;;;;;;;;;;4991904;28;20575;-61
2023/04/21 00:13:45;;;;;;;33.95;25.08;;;;;;;;;;4991759;28;20539;-62
2023/04/21 00:16:11;;;;;;;31.02;22.98;;;;;;;;;;4992098;28;20026;-62
2023/04/21 00:18:37;;;;;;;33.78;24.38;;;;;;;;;;4991666;28;20073;-62
2023/04/21 00:21:03;;;;;;;30.92;22.58;;;;;;;;;;4991875;28;20557;-62
2023/04/21 00:23:29;;;;;;;32.70;23.15;;;;;;;;;;4991656;28;20368;-62
2023/04/21 00:25:55;;;;;;;31.88;22.70;;;;;;;;;;4991584;28;20021;-62
2023/04/21 00:28:22;;;;;;;32.97;24.80;;;;;;;;;;4991789;28;20018;-61
2023/04/21 00:30:48;;;;;;;30.92;24.13;;;;;;;;;;4994271;28;20023;-64
2023/04/21 00:33:14;;;;;;;31.00;23.00;;;;;;;;;;4993981;28;20053;-66
2023/04/21 00:35:40;;;;;;;34.00;25.10;;;;;;;;;;4995360;28;20026;-63
2023/04/21 00:38:06;;;;;;;32.47;23.63;;;;;;;;;;4995170;28;20042;-61
2023/04/21 00:40:32;;;;;;;32.05;24.35;;;;;;;;;;4995367;28;20023;-63
2023/04/21 00:42:58;;;;;;;33.42;23.75;;;;;;;;;;4995257;28;20057;-62
2023/04/21 00:45:24;;;;;;;33.53;24.73;;;;;;;;;;4995113;28;20430;-61
2023/04/21 00:47:51;;;;;;;34.40;24.55;;;;;;;;;;4995106;28;20049;-61
2023/04/21 00:50:17;;;;;;;33.13;24.48;;;;;;;;;;4995250;28;20026;-60
2023/04/21 00:52:45;;;;;;;35.25;24.67;;;;;;;;;;4995189;28;20023;-62
2023/04/21 00:55:12;;;;;;;32.35;24.35;;;;;;;;;;4996219;28;20482;-61
2023/04/21 00:57:38;;;;;;;35.67;24.70;;;;;;;;;;4996413;28;20026;-58
2023/04/21 01:00:05;;;;;;;34.08;24.95;;;;;;;;;;4997568;28;20023;-63
2023/04/21 01:02:32;;;;;;;36.35;26.85;;;;;;;;;;5009499;28;20045;-58
2023/04/21 01:04:58;;;;;;;35.60;24.77;;;;;;;;;;5008138;28;20026;-59
2023/04/21 01:07:24;;;;;;;33.58;25.00;;;;;;;;;;4994938;28;20085;-63
2023/04/21 01:09:50;;;;;;;34.97;25.45;;;;;;;;;;4995674;28;20031;-59
2023/04/21 01:12:16;;;;;;;34.75;25.92;;;;;;;;;;4994930;28;20467;-62
2023/04/21 01:14:42;;;;;;;32.88;26.02;;;;;;;;;;4994410;28;20030;-61
2023/04/21 01:17:09;;;;;;;35.00;25.83;;;;;;;;;;4994651;28;20084;-64
2023/04/21 01:19:38;;;;;;;34.15;25.30;;;;;;;;;;4994617;28;20034;-62
2023/04/21 01:22:06;;;;;;;42.67;26.65;;;;;;;;;;4994418;28;20018;-62
2023/04/21 01:24:42;;;;;;;32.17;24.80;;;;;;;;;;4993183;28;20394;-61
2023/04/21 01:27:26;;;;;;;32.65;25.70;;;;;;;;;;4994260;28;20113;-62
2023/04/21 01:29:52;;;;;;;35.28;26.25;;;;;;;;;;4992949;28;20487;-64
2023/04/21 01:32:19;;;;;;;36.05;27.63;;;;;;;;;;4994226;28;20034;-64
2023/04/21 01:34:45;;;;;;;32.88;25.92;;;;;;;;;;4992521;28;20375;-62
2023/04/21 01:37:12;;;;;;;33.90;25.90;;;;;;;;;;4994009;28;20026;-64
2023/04/21 01:39:42;;;;;;;36.88;27.08;;;;;;;;;;4994003;28;20056;-62
2023/04/21 01:42:09;;;;;;;35.60;26.77;;;;;;;;;;4993142;28;20085;-62
2023/04/21 01:44:35;;;;;;;35.65;26.50;;;;;;;;;;4993846;28;20028;-62
2023/04/21 01:47:02;;;;;;;33.65;26.88;;;;;;;;;;4994015;28;20073;-65
2023/04/21 01:49:28;;;;;;;35.72;26.40;;;;;;;;;;4994159;28;20375;-62
2023/04/21 01:51:54;;;;;;;36.80;26.23;;;;;;;;;;4994398;28;20022;-64
2023/04/21 01:54:20;;;;;;;34.97;26.35;;;;;;;;;;4993702;28;20077;-63
2023/04/21 01:56:46;;;;;;;35.45;27.08;;;;;;;;;;4994227;28;20521;-59
2023/04/21 01:59:12;;;;;;;36.50;26.50;;;;;;;;;;4993933;28;20030;-63
2023/04/21 02:01:38;;;;;;;35.38;26.73;;;;;;;;;;4992738;28;20113;-62
2023/04/21 02:04:04;;;;;;;36.85;26.80;;;;;;;;;;4993662;28;20507;-63
2023/04/21 02:06:30;;;;;;;33.30;26.00;;;;;;;;;;4993769;28;20583;-62
2023/04/21 02:08:57;;;;;;;35.47;25.85;;;;;;;;;;4994586;28;20060;-61
2023/04/21 02:11:24;;;;;;;37.05;27.60;;;;;;;;;;4995493;28;20030;-61
2023/04/21 02:13:50;;;;;;;34.88;26.92;;;;;;;;;;4994544;28;20022;-61
2023/04/21 02:16:17;;;;;;;33.95;26.63;;;;;;;;;;4993592;28;20034;-61
2023/04/21 02:18:43;;;;;;;36.58;28.13;;;;;;;;;;4993464;28;20398;-64
2023/04/21 02:21:09;;;;;;;35.10;26.77;;;;;;;;;;4992112;28;20062;-64
2023/04/21 02:23:35;;;;;;;36.88;26.65;;;;;;;;;;4993209;28;20113;-64
2023/04/21 02:26:01;;;;;;;36.08;27.15;;;;;;;;;;4993263;28;20117;-62
2023/04/21 02:28:27;;;;;;;36.83;27.52;;;;;;;;;;4992099;28;20027;-64
2023/04/21 02:30:53;;;;;;;35.90;27.33;;;;;;;;;;4993381;28;20022;-63
2023/04/21 02:33:19;;;;;;;33.25;25.15;;;;;;;;;;4992992;28;20653;-62
2023/04/21 02:35:45;;;;;;;40.63;28.83;;;;;;;;;;4993137;28;20084;-62
2023/04/21 02:38:11;;;;;;;35.08;27.73;;;;;;;;;;4993099;28;20109;-64
2023/04/21 02:40:37;;;;;;;34.30;26.73;;;;;;;;;;4993156;28;20096;-62
2023/04/21 02:43:03;;;;;;;35.42;25.80;;;;;;;;;;4992889;28;20022;-62
2023/04/21 02:45:29;;;;;;;38.45;27.85;;;;;;;;;;4993085;28;20026;-58
2023/04/21 02:47:55;;;;;;;36.58;27.58;;;;;;;;;;4991469;28;20084;-61
2023/04/21 02:50:21;;;;;;;36.38;26.30;;;;;;;;;;4993046;28;20026;-63
2023/04/21 02:52:47;;;;;;;38.97;27.30;;;;;;;;;;4992747;28;20022;-63
2023/04/21 02:55:13;;;;;;;34.45;25.33;;;;;;;;;;4992458;28;20019;-61
2023/04/21 02:57:39;;;;;;;36.78;27.02;;;;;;;;;;4992655;28;20026;-60
2023/04/21 03:00:06;;;;;;;37.53;28.00;;;;;;;;;;4992897;28;20029;-63
2023/04/21 03:02:32;;;;;;;37.15;28.65;;;;;;;;;;4992845;28;20033;-64
2023/04/21 03:04:58;;;;;;;38.50;28.08;;;;;;;;;;4992465;28;20022;-62
2023/04/21 03:07:24;;;;;;;34.88;25.92;;;;;;;;;;4992622;28;20165;-59
2023/04/21 03:09:50;;;;;;;35.92;26.48;;;;;;;;;;4993195;28;20057;-59
2023/04/21 03:12:16;;;;;;;41.78;28.27;;;;;;;;;;4993139;28;20030;-58
2023/04/21 03:14:42;;;;;;;39.28;27.25;;;;;;;;;;4992543;28;20040;-59
2023/04/21 03:17:08;;;;;;;37.78;26.90;;;;;;;;;;4992455;28;20038;-62
2023/04/21 03:19:34;;;;;;;37.05;27.55;;;;;;;;;;4992483;28;20130;-62
2023/04/21 03:22:00;;;;;;;34.75;26.42;;;;;;;;;;4992384;28;20084;-60
2023/04/21 03:24:26;;;;;;;40.28;29.60;;;;;;;;;;4992015;28;20026;-62
2023/04/21 03:26:52;;;;;;;34.17;26.48;;;;;;;;;;4992478;28;20491;-60
2023/04/21 03:29:18;;;;;;;35.17;27.38;;;;;;;;;;4991220;28;20112;-60
2023/04/21 03:31:44;;;;;;;36.95;28.27;;;;;;;;;;4992224;28;20038;-60
2023/04/21 03:34:10;;;;;;;35.92;27.20;;;;;;;;;;4992214;28;20033;-61
2023/04/21 03:36:36;;;;;;;37.08;27.20;;;;;;;;;;4992313;28;20038;-62
2023/04/21 03:39:03;;;;;;;41.72;29.80;;;;;;;;;;4991121;28;20164;-61
2023/04/21 03:41:29;;;;;;;40.25;29.75;;;;;;;;;;4993006;28;20050;-61
2023/04/21 03:43:54;;;;;;;40.13;28.98;;;;;;;;;;4992004;28;20027;-57
2023/04/21 03:46:21;;;;;;;39.42;28.52;;;;;;;;;;4993216;28;20045;-60
2023/04/21 03:48:47;;;;;;;35.63;26.30;;;;;;;;;;4994038;28;20026;-58
2023/04/21 03:51:14;;;;;;;37.15;28.77;;;;;;;;;;4992612;28;20082;-62
2023/04/21 03:53:40;;;;;;;36.88;27.65;;;;;;;;;;4992019;28;20027;-60
2023/04/21 03:56:06;;;;;;;38.67;29.13;;;;;;;;;;4992490;28;20033;-63
2023/04/21 03:58:32;;;;;;;38.40;28.50;;;;;;;;;;4990732;28;20031;-61
2023/04/21 04:00:58;;;;;;;38.33;27.98;;;;;;;;;;4992110;28;20026;-61
2023/04/21 04:03:24;;;;;;;37.33;28.08;;;;;;;;;;4992107;28;20027;-61
2023/04/21 04:05:50;;;;;;;39.42;27.70;;;;;;;;;;4994783;28;20387;-59
2023/04/21 04:08:16;;;;;;;38.58;26.63;;;;;;;;;;4994339;28;20034;-62
2023/04/21 04:10:42;;;;;;;40.88;27.85;;;;;;;;;;4995898;28;20517;-64
2023/04/21 04:13:08;;;;;;;37.55;28.27;;;;;;;;;;4995479;28;20026;-60
2023/04/21 04:15:34;;;;;;;40.65;28.40;;;;;;;;;;4995749;28;20066;-62
2023/04/21 04:18:00;;;;;;;40.70;28.30;;;;;;;;;;4995546;28;20022;-64
2023/04/21 04:20:26;;;;;;;37.97;27.25;;;;;;;;;;4995740;28;20422;-62
2023/04/21 04:22:52;;;;;;;38.30;27.55;;;;;;;;;;4994559;28;20037;-62
2023/04/21 04:25:18;;;;;;;40.78;28.45;;;;;;;;;;4994192;28;20019;-61
2023/04/21 04:27:44;;;;;;;38.08;27.30;;;;;;;;;;4995648;28;20434;-61
2023/04/21 04:30:11;;;;;;;39.33;27.67;;;;;;;;;;4995423;28;20027;-62
2023/04/21 04:32:38;;;;;;;34.97;27.15;;;;;;;;;;4995569;28;20029;-61
2023/04/21 04:35:05;;;;;;;37.65;28.60;;;;;;;;;;4995150;28;20022;-62
2023/04/21 04:37:33;;;;;;;37.00;27.10;;;;;;;;;;4994953;28;20026;-63
2023/04/21 04:39:59;;;;;;;36.85;26.98;;;;;;;;;;4995117;28;20030;-63
2023/04/21 04:42:25;;;;;;;36.78;26.50;;;;;;;;;;4995159;28;20109;-65
2023/04/21 04:44:56;;;;;;;35.28;26.38;;;;;;;;;;4994855;28;20114;-61
2023/04/21 04:47:22;;;;;;;39.38;27.33;;;;;;;;;;4995094;28;20164;-63
2023/04/21 04:49:48;;;;;;;35.67;26.55;;;;;;;;;;4993576;28;20026;-62
2023/04/21 04:52:14;;;;;;;36.05;27.60;;;;;;;;;;4994967;28;20022;-64
2023/04/21 04:54:40;;;;;;;35.75;26.80;;;;;;;;;;4994670;28;20494;-61
2023/04/21 04:57:06;;;;;;;36.08;27.42;;;;;;;;;;4994684;28;20034;-58
2023/04/21 04:59:32;;;;;;;34.50;25.80;;;;;;;;;;4993496;28;20041;-64
2023/04/21 05:01:58;;;;;;;36.03;27.42;;;;;;;;;;4993262;28;20030;-64
2023/04/21 05:04:24;;;;;;;38.55;27.95;;;;;;;;;;4994381;28;20029;-63
2023/04/21 05:06:51;;;;;;;37.03;25.85;;;;;;;;;;4994568;28;20098;-64
2023/04/21 05:09:17;;;;;;;35.53;25.95;;;;;;;;;;4994291;28;20057;-62
2023/04/21 05:11:43;;;;;;;35.78;27.27;;;;;;;;;;4993258;28;20030;-65
2023/04/21 05:14:09;;;;;;;36.38;26.77;;;;;;;;;;4994376;28;20033;-62
2023/04/21 05:16:35;;;;;;;34.47;25.15;;;;;;;;;;4993359;28;20073;-64
2023/04/21 05:19:01;;;;;;;37.40;28.48;;;;;;;;;;4992904;28;20026;-62
2023/04/21 05:21:27;;;;;;;35.22;26.88;;;;;;;;;;4994226;28;20035;-61
2023/04/21 05:23:54;;;;;;;39.33;27.63;;;;;;;;;;4994235;28;20427;-64
2023/04/21 05:26:20;;;;;;;37.17;27.23;;;;;;;;;;4994595;28;20506;-63
2023/04/21 05:28:46;;;;;;;37.55;27.55;;;;;;;;;;4992967;28;20018;-64
2023/04/21 05:31:12;;;;;;;35.55;26.02;;;;;;;;;;4994042;28;20045;-61
2023/04/21 05:33:38;;;;;;;40.45;29.25;;;;;;;;;;4992868;28;20186;-63
2023/04/21 05:36:08;;;;;;;37.70;28.30;;;;;;;;;;4994333;28;20647;-63
2023/04/21 05:38:34;;;;;;;36.83;26.75;;;;;;;;;;4992293;28;20022;-59
2023/04/21 05:41:00;;;;;;;35.67;26.15;;;;;;;;;;4987166;28;20494;-58
2023/04/21 05:43:26;;;;;;;32.80;26.20;;;;;;;;;;4981288;28;20031;-60
2023/04/21 05:45:52;;;;;;;37.95;26.58;;;;;;;;;;4974512;28;20085;-60
2023/04/21 05:48:18;;;;;;;36.22;26.80;;;;;;;;;;4991777;28;20434;-60
2023/04/21 05:50:44;;;;;;;36.35;26.98;;;;;;;;;;4992494;28;20030;-59
2023/04/21 05:53:10;;;;;;;35.80;25.63;;;;;;;;;;4994566;28;20037;-62
2023/04/21 05:55:36;;;;;;;36.42;25.90;;;;;;;;;;4983996;28;20089;-63
2023/04/21 05:58:03;;;;;;;35.28;25.42;;;;;;;;;;4972296;28;20033;-57
2023/04/21 06:00:29;;;;;;;33.42;25.33;;;;;;;;;;4995915;28;20030;-60
2023/04/21 06:02:55;;;;;;;34.38;26.50;;;;;;;;;;5011319;28;20030;-60
2023/04/21 06:05:21;;;;;;;35.08;26.50;;;;;;;;;;5012784;28;20084;-60
2023/04/21 06:07:47;;;;;;;33.28;24.65;;;;;;;;;;5029214;22;20029;-66
2023/04/21 06:10:14;;;;;;;33.70;24.95;;;;;;;;;;5031165;28;20409;-65
2023/04/21 06:12:40;;;;;;;36.58;26.40;;;;;;;;;;5032264;28;20128;-65
2023/04/21 06:15:07;;;;;;;34.63;25.75;;;;;;;;;;5032445;28;20034;-66
2023/04/21 06:17:33;;;;;;;33.35;24.80;;;;;;;;;;5033138;28;20503;-65
2023/04/21 06:19:59;;;;;;;37.88;25.80;;;;;;;;;;5032262;28;20025;-65
2023/04/21 06:22:25;;;;;;;34.30;26.98;;;;;;;;;;5032262;28;20044;-67
2023/04/21 06:24:51;;;;;;;35.90;24.80;;;;;;;;;;5015287;28;20112;-66
2023/04/21 06:27:17;;;;;;;33.58;25.60;;;;;;;;;;5013627;28;20029;-65
2023/04/21 06:29:43;;;;;;;35.75;25.98;;;;;;;;;;5031855;28;20029;-66
2023/04/21 06:32:09;;;;;;;38.78;24.73;;;;;;;;;;5032172;28;20021;-64
2023/04/21 06:34:35;;;;;;;34.50;25.20;;;;;;;;;;5037980;28;20033;-64
2023/04/21 06:37:01;;;;;;;40.33;25.92;;;;;;;;;;5035142;28;20026;-64
2023/04/21 06:39:28;;;;;;;31.70;24.35;;;;;;;;;;5028966;28;20390;-65
2023/04/21 06:41:54;;;;;;;34.50;26.10;;;;;;;;;;5012756;28;20037;-66
2023/04/21 06:44:20;;;;;;;33.47;25.58;;;;;;;;;;5012251;28;20036;-65
2023/04/21 06:46:46;;;;;;;33.65;24.25;;;;;;;;;;5012894;28;20022;-65
2023/04/21 06:49:12;;;;;;;33.45;23.77;;;;;;;;;;5000963;28;20078;-64
2023/04/21 06:51:38;;;;;;;35.58;25.52;;;;;;;;;;5009076;28;20057;-65
2023/04/21 06:54:05;;;;;;;35.75;25.92;;;;;;;;;;5011501;28;20033;-66
2023/04/21 06:56:31;;;;;;;35.78;25.58;;;;;;;;;;5012144;28;20029;-66
2023/04/21 06:58:57;;;;;;;33.42;25.73;;;;;;;;;;5011563;28;20430;-66
2023/04/21 07:01:23;;;;;;;35.42;26.17;;;;;;;;;;5011754;28;20032;-66
2023/04/21 07:03:50;;;;;;;34.15;25.98;;;;;;;;;;5011334;28;20022;-60
2023/04/21 07:06:16;;;;;;;35.05;25.27;;;;;;;;;;5011708;28;20088;-64
2023/04/21 07:08:42;;;;;;;32.45;24.13;;;;;;;;;;5001827;28;20034;-64
2023/04/21 07:11:08;;;;;;;33.47;23.95;;;;;;;;;;5010374;28;20088;-64
2023/04/21 07:13:34;;;;;;;32.85;24.83;;;;;;;;;;5014231;28;20052;-62
2023/04/21 07:16:00;;;;;;;34.42;24.50;;;;;;;;;;5013883;28;20028;-67
2023/04/21 07:18:26;;;;;;;33.15;24.35;;;;;;;;;;5013377;28;20473;-65
2023/04/21 07:20:52;;;;;;;34.50;25.40;;;;;;;;;;5013415;28;20061;-65
2023/04/21 07:23:18;;;;;;;34.28;24.60;;;;;;;;;;5031550;28;20030;-66
2023/04/21 07:25:44;;;;;;;32.55;25.50;;;;;;;;;;5031267;28;20470;-66
2023/04/21 07:28:10;;;;;;;31.65;23.27;;;;;;;;;;5031229;28;20037;-63
2023/04/21 07:30:36;;;;;;;35.10;25.70;;;;;;;;;;5031211;28;20076;-65
2023/04/21 07:33:03;;;;;;;36.13;25.67;;;;;;;;;;5031028;28;20104;-66
2023/04/21 07:35:29;;;;;;;34.05;25.35;;;;;;;;;;5031353;28;20029;-66
2023/04/21 07:37:55;;;;;;;33.15;24.83;;;;;;;;;;5030913;28;20041;-66
2023/04/21 07:40:21;;;;;;;33.03;24.85;;;;;;;;;;5009508;28;20037;-66
2023/04/21 07:42:47;;;;;;;31.70;24.75;;;;;;;;;;4994129;28;20026;-66
2023/04/21 07:45:13;;;;;;;35.58;25.63;;;;;;;;;;5011061;28;20022;-66
2023/04/21 07:47:39;;;;;;;38.03;24.52;;;;;;;;;;5011266;28;20022;-67
2023/04/21 07:50:06;;;;;;;32.17;24.17;;;;;;;;;;5011748;28;20025;-66
2023/04/21 07:52:32;;;;;;;32.08;23.38;;;;;;;;;;5011830;28;20053;-63
2023/04/21 07:54:58;;;;;;;29.08;23.50;;;;;;;;;;4993429;28;20068;-65
2023/04/21 07:57:24;;;;;;;32.70;23.85;;;;;;;;;;5011318;28;20090;-65
2023/04/21 07:59:50;;;;;;;32.55;23.42;;;;;;;;;;5011620;28;20038;-65
2023/04/21 08:02:16;;;;;;;33.08;24.88;;;;;;;;;;4993834;28;20497;-65
2023/04/21 08:04:42;;;;;;;31.40;23.13;;;;;;;;;;5013917;28;20030;-66
2023/04/21 08:07:08;;;;;;;35.40;24.15;;;;;;;;;;5019423;28;20028;-66
2023/04/21 08:09:34;;;;;;;31.45;23.67;;;;;;;;;;4995684;28;20435;-66
2023/04/21 08:12:01;;;;;;;29.83;23.42;;;;;;;;;;4993520;28;20135;-68
2023/04/21 08:14:27;;;;;;;32.03;24.55;;;;;;;;;;5010970;28;20049;-67
2023/04/21 08:16:53;;;;;;;31.75;24.27;;;;;;;;;;5011131;28;20030;-66
2023/04/21 08:19:19;;;;;;;30.90;22.42;;;;;;;;;;4993460;28;20025;-66
2023/04/21 08:21:45;;;;;;;31.00;22.88;;;;;;;;;;4993299;28;20044;-67
2023/04/21 08:24:11;;;;;;;36.08;24.10;;;;;;;;;;4993190;28;20410;-65
2023/04/21 08:26:37;;;;;;;30.65;23.13;;;;;;;;;;5011103;28;20025;-68
2023/04/21 08:29:06;;;;;;;32.92;22.70;;;;;;;;;;5011060;28;20057;-66
2023/04/21 08:31:32;;;;;;;29.58;22.67;;;;;;;;;;5011103;28;20030;-66
2023/04/21 08:34:00;;;;;;;31.83;23.42;;;;;;;;;;4993177;28;20425;-67
2023/04/21 08:36:26;;;;;;;29.38;23.88;;;;;;;;;;4993697;28;20112;-67
2023/04/21 08:38:52;;;;;;;31.17;24.75;;;;;;;;;;4993724;28;20552;-65
2023/04/21 08:41:19;;;;;;;30.52;23.60;;;;;;;;;;4993254;28;20030;-66
2023/04/21 08:43:45;;;;;;;31.05;23.63;;;;;;;;;;4992857;28;20387;-66
2023/04/21 08:46:11;;;;;;;30.83;23.92;;;;;;;;;;4993109;28;20033;-66
2023/04/21 08:48:38;;;;;;;30.85;23.13;;;;;;;;;;5010559;28;20022;-66
2023/04/21 08:51:08;;;;;;;34.28;23.52;;;;;;;;;;4995472;28;20029;-66
2023/04/21 08:53:34;;;;;;;31.02;23.08;;;;;;;;;;5013995;28;20037;-64
2023/04/21 08:56:00;;;;;;;31.92;24.75;;;;;;;;;;5014280;28;20026;-66
2023/04/21 08:58:26;;;;;;;31.90;24.17;;;;;;;;;;4996317;28;20407;-64
2023/04/21 09:00:52;;;;;;;31.83;23.05;;;;;;;;;;5013868;28;20032;-64
2023/04/21 09:03:25;;;;;;;32.22;23.20;;;;;;;;;;4996227;28;20518;-66
2023/04/21 09:05:58;;;;;;;30.45;22.58;;;;;;;;;;5013886;28;20048;-65
2023/04/21 09:08:25;;;;;;;31.05;23.52;;;;;;;;;;4995683;28;20022;-66
2023/04/21 09:10:51;;;;;;;30.87;24.87;;;;;;;;;;5013523;28;20061;-66
2023/04/21 09:13:18;;;;;;;31.65;23.17;;;;;;;;;;4995807;28;20375;-66
2023/04/21 09:15:45;;;;;;;29.30;22.42;;;;;;;;;;5013465;28;20022;-65
2023/04/21 09:18:18;;;;;;;29.88;22.98;;;;;;;;;;5013149;28;20026;-67
2023/04/21 09:20:45;;;;;;;32.80;24.00;;;;;;;;;;4995903;28;20030;-67
2023/04/21 09:23:11;;;;;;;29.90;23.55;;;;;;;;;;5013090;28;20108;-65
2023/04/21 09:25:38;;;;;;;29.60;22.13;;;;;;;;;;5013108;28;20018;-64
2023/04/21 09:28:08;;;;;;;28.73;22.20;;;;;;;;;;5014489;28;20026;-65
2023/04/21 09:30:36;;;;;;;28.83;22.80;;;;;;;;;;4998249;28;20018;-63
2023/04/21 09:33:02;;;;;;;32.75;23.63;;;;;;;;;;4996874;28;20394;-64
2023/04/21 09:35:28;;;;;;;29.58;22.23;;;;;;;;;;5014445;28;20057;-63
2023/04/21 09:37:54;;;;;;;33.83;23.23;;;;;;;;;;4995542;28;20037;-62
2023/04/21 09:40:20;;;;;;;30.58;23.08;;;;;;;;;;5013443;28;20018;-63
2023/04/21 09:42:46;;;;;;;30.25;22.23;;;;;;;;;;4995717;28;20402;-64
2023/04/21 09:45:16;;;;;;;30.25;23.02;;;;;;;;;;4995679;28;20053;-65
2023/04/21 09:47:42;;;;;;;31.92;23.63;;;;;;;;;;4995660;28;20018;-65
2023/04/21 09:50:10;;;;;;;30.35;23.02;;;;;;;;;;4996076;28;20026;-64
2023/04/21 09:52:40;;;;;;;30.05;23.52;;;;;;;;;;4996097;28;20426;-63
2023/04/21 09:55:15;;;;;;;30.75;23.27;;;;;;;;;;5013192;28;20456;-63
2023/04/21 09:57:42;;;;;;;30.48;23.50;;;;;;;;;;4995858;28;20037;-64
2023/04/21 10:00:09;;;;;;;28.85;22.42;;;;;;;;;;5013513;28;20040;-65
2023/04/21 10:02:40;;;;;;;34.15;22.38;;;;;;;;;;5012900;28;20108;-64
2023/04/21 10:05:06;;;;;;;28.38;22.42;;;;;;;;;;5013154;28;20034;-62
2023/04/21 10:07:32;;;;;;;26.67;23.10;;;;;;;;;;5013397;28;20101;-64
2023/04/21 10:09:59;;;;;;;28.83;23.40;;;;;;;;;;5012787;28;20124;-65
2023/04/21 10:12:26;;;;;;;29.85;22.45;;;;;;;;;;5012718;28;20034;-65
2023/04/21 10:14:55;;;;;;;30.83;24.48;;;;;;;;;;5012716;28;20454;-66
2023/04/21 10:17:23;;;;;;;28.52;22.52;;;;;;;;;;5012980;28;20037;-65
2023/04/21 10:19:51;;;;;;;28.98;23.63;;;;;;;;;;5012518;28;20379;-65
2023/04/21 10:22:30;;;;;;;31.35;23.27;;;;;;;;;;4994936;28;20038;-65
2023/04/21 10:24:57;;;;;;;31.02;23.00;;;;;;;;;;4994638;28;20077;-65
2023/04/21 10:27:38;;;;;;;29.30;23.40;;;;;;;;;;4995230;28;20093;-64
2023/04/21 10:30:25;;;;;;;26.15;22.52;;;;;;;;;;5012661;28;20022;-66
2023/04/21 10:33:04;;;;;;;34.25;23.45;;;;;;;;;;5012726;28;20022;-65
2023/04/21 10:35:50;;;;;;;27.15;21.77;;;;;;;;;;5012506;28;20088;-65
2023/04/21 10:38:35;;;;;;;34.60;22.55;;;;;;;;;;4984349;28;20034;-64
2023/04/21 10:41:20;;;;;;;30.92;22.83;;;;;;;;;;5012372;28;20030;-66
2023/04/21 10:43:46;;;;;;;30.65;23.20;;;;;;;;;;5012050;28;20490;-64
2023/04/21 10:46:31;;;;;;;30.95;22.70;;;;;;;;;;5012524;28;20018;-65
2023/04/21 10:49:04;;;;;;;29.73;22.55;;;;;;;;;;4994885;28;20084;-64
2023/04/21 10:51:33;;;;;;;29.77;23.13;;;;;;;;;;4995033;28;20482;-62
2023/04/21 10:54:00;;;;;;;29.67;21.40;;;;;;;;;;5011809;28;20057;-64
2023/04/21 10:56:26;;;;;;;29.73;22.58;;;;;;;;;;5011918;28;20033;-65
2023/04/21 10:58:52;;;;;;;28.25;22.40;;;;;;;;;;5011454;28;20037;-66
2023/04/21 11:01:18;;;;;;;30.60;22.35;;;;;;;;;;5011920;28;20034;-66
2023/04/21 11:03:44;;;;;;;28.60;22.60;;;;;;;;;;5011571;28;20033;-66
2023/04/21 11:06:14;;;;;;;29.45;21.95;;;;;;;;;;4994457;28;20026;-66
2023/04/21 11:08:56;;;;;;;26.67;21.27;;;;;;;;;;5011441;28;20073;-68
2023/04/21 11:11:28;;;;;;;27.50;22.17;;;;;;;;;;4996849;28;20543;-65
2023/04/21 11:13:54;;;;;;;30.88;24.48;;;;;;;;;;5010475;28;20045;-66
2023/04/21 11:16:20;;;;;;;26.80;20.77;;;;;;;;;;5011227;28;20068;-65
2023/04/21 11:18:46;;;;;;;28.80;22.00;;;;;;;;;;5011306;28;20678;-65
2023/04/21 11:21:20;;;;;;;29.90;20.75;;;;;;;;;;5012251;28;20033;-65
2023/04/21 11:23:57;;;;;;;30.50;21.95;;;;;;;;;;5011993;28;20394;-67
2023/04/21 11:26:33;;;;;;;27.23;21.13;;;;;;;;;;5010953;28;20558;-64
2023/04/21 11:29:00;;;;;;;28.70;21.55;;;;;;;;;;4993813;28;20030;-64
2023/04/21 11:31:30;;;;;;;27.45;21.63;;;;;;;;;;4993803;28;20030;-64
2023/04/21 11:33:57;;;;;;;26.88;20.48;;;;;;;;;;5011305;28;20033;-66
2023/04/21 11:36:23;;;;;;;28.27;21.15;;;;;;;;;;4993553;28;20323;-64
2023/04/21 11:38:49;;;;;;;29.77;21.08;;;;;;;;;;5010849;28;20558;-65
2023/04/21 11:41:22;;;;;;;28.42;20.58;;;;;;;;;;5011173;28;20501;-66
2023/04/21 11:43:48;;;;;;;28.17;20.75;;;;;;;;;;4993248;28;20030;-64
2023/04/21 11:46:25;;;;;;;27.15;22.23;;;;;;;;;;4993615;28;20022;-64
2023/04/21 11:49:07;;;;;;;27.55;20.00;;;;;;;;;;5011311;28;20397;-64
2023/04/21 11:51:33;;;;;;;29.30;20.27;;;;;;;;;;4994234;28;20100;-64
2023/04/21 11:53:59;;;;;;;28.08;19.67;;;;;;;;;;5010978;28;20025;-64
2023/04/21 11:56:25;;;;;;;27.15;20.77;;;;;;;;;;4993637;28;20028;-65
2023/04/21 11:58:52;;;;;;;23.83;19.35;;;;;;;;;;5008524;28;20066;-62
2023/04/21 12:01:18;;;;;;;25.02;19.08;;;;;;;;;;5002454;28;20140;-64
2023/04/21 12:03:54;;;;;;;24.50;18.88;;;;;;;;;;5011053;28;20026;-64
2023/04/21 12:06:30;;;;;;;23.88;19.17;;;;;;;;;;5009425;28;20014;-60
2023/04/21 12:08:59;;;;;;;23.55;19.42;;;;;;;;;;5032011;23;20037;-67
2023/04/21 12:11:26;;;;;;;26.67;19.60;;;;;;;;;;5017821;28;20472;-68
2023/04/21 12:13:52;;;;;;;27.15;19.55;;;;;;;;;;5023958;28;20030;-68
2023/04/21 12:16:19;;;;;;;26.48;19.83;;;;;;;;;;5028590;28;20045;-67
2023/04/21 12:18:45;;;;;;;25.20;20.08;;;;;;;;;;5027184;28;20049;-67
2023/04/21 12:21:14;;;;;;;23.75;17.90;;;;;;;;;;5025537;28;20083;-67
2023/04/21 12:23:40;;;;;;;24.40;18.00;;;;;;;;;;5015688;28;20057;-67
2023/04/21 12:26:06;;;;;;;25.75;18.80;;;;;;;;;;5033851;28;20025;-67
2023/04/21 12:28:32;;;;;;;24.25;18.77;;;;;;;;;;5034866;28;20028;-67
2023/04/21 12:30:58;;;;;;;24.52;19.38;;;;;;;;;;5016584;28;20105;-66
2023/04/21 12:33:24;;;;;;;24.55;18.70;;;;;;;;;;5016381;28;20048;-66
2023/04/21 12:35:50;;;;;;;22.85;18.00;;;;;;;;;;5034531;28;20021;-66
2023/04/21 12:38:16;;;;;;;29.15;19.00;;;;;;;;;;5034409;28;20036;-66
2023/04/21 12:40:42;;;;;;;23.02;18.27;;;;;;;;;;5034254;28;20026;-67
2023/04/21 12:43:08;;;;;;;25.02;18.15;;;;;;;;;;5034484;28;20014;-67
2023/04/21 12:45:34;;;;;;;23.95;17.02;;;;;;;;;;5034209;28;20025;-67
2023/04/21 12:48:00;;;;;;;24.13;16.48;;;;;;;;;;5034241;28;20096;-66
2023/04/21 12:50:26;;;;;;;24.20;18.10;;;;;;;;;;5033783;28;20044;-66
2023/04/21 12:52:54;;;;;;;23.63;16.10;;;;;;;;;;5015578;28;20477;-66
2023/04/21 12:55:20;;;;;;;22.47;17.17;;;;;;;;;;5033913;28;20025;-68
2023/04/21 12:57:46;;;;;;;23.02;16.75;;;;;;;;;;5033937;28;20040;-66
2023/04/21 13:00:13;;;;;;;23.42;16.20;;;;;;;;;;5034052;28;20021;-65
2023/04/21 13:02:40;;;;;;;23.17;16.33;;;;;;;;;;5016114;28;20474;-67
2023/04/21 13:05:06;;;;;;;25.25;16.88;;;;;;;;;;5015864;28;20413;-65
2023/04/21 13:07:35;;;;;;;22.92;16.20;;;;;;;;;;5033419;28;20385;-66
2023/04/21 13:10:02;;;;;;;22.48;15.50;;;;;;;;;;5033995;28;20038;-66
2023/04/21 13:12:28;;;;;;;23.55;16.55;;;;;;;;;;5033869;28;20040;-67
2023/04/21 13:14:54;;;;;;;22.00;15.68;;;;;;;;;;5032755;28;20171;-65
2023/04/21 13:17:20;;;;;;;22.65;15.52;;;;;;;;;;5015623;28;20021;-66
2023/04/21 13:19:46;;;;;;;20.60;15.15;;;;;;;;;;5033510;28;20029;-67
2023/04/21 13:22:12;;;;;;;20.35;14.43;;;;;;;;;;5032894;28;20021;-66
2023/04/21 13:24:38;;;;;;;23.38;14.55;;;;;;;;;;5032599;28;20040;-66
2023/04/21 13:27:04;;;;;;;20.23;14.52;;;;;;;;;;5015221;28;20109;-66
2023/04/21 13:29:32;;;;;;;21.75;15.20;;;;;;;;;;5033037;28;20394;-66
2023/04/21 13:31:59;;;;;;;21.33;14.32;;;;;;;;;;5033524;28;20029;-67
2023/04/21 13:34:25;;;;;;;23.55;15.15;;;;;;;;;;5032932;28;20354;-66
2023/04/21 13:36:51;;;;;;;23.60;14.88;;;;;;;;;;5031751;28;20036;-66
2023/04/21 13:39:17;;;;;;;22.33;15.20;;;;;;;;;;5033111;28;20025;-66
2023/04/21 13:41:43;;;;;;;20.65;14.15;;;;;;;;;;5032669;28;20033;-66
2023/04/21 13:44:09;;;;;;;20.73;14.70;;;;;;;;;;5032576;28;20506;-67
2023/04/21 13:46:35;;;;;;;18.20;13.18;;;;;;;;;;5032991;28;20478;-65
2023/04/21 13:49:01;;;;;;;20.30;14.23;;;;;;;;;;5031050;28;20037;-66
2023/04/21 13:51:29;;;;;;;19.98;13.95;;;;;;;;;;5024041;28;20072;-66
2023/04/21 13:53:55;;;;;;;20.95;14.35;;;;;;;;;;5031991;28;20025;-67
2023/04/21 13:56:21;;;;;;;18.92;13.45;;;;;;;;;;5032492;28;20094;-66
2023/04/21 13:58:47;;;;;;;19.17;13.48;;;;;;;;;;5014467;28;20040;-67
2023/04/21 14:01:13;;;;;;;19.92;13.27;;;;;;;;;;5032637;28;20060;-67
2023/04/21 14:03:40;;;;;;;19.02;13.20;;;;;;;;;;5032073;28;20021;-68
2023/04/21 14:06:06;;;;;;;22.45;14.63;;;;;;;;;;5032042;28;20209;-65
2023/04/21 14:08:32;;;;;;;22.63;14.70;;;;;;;;;;5032411;28;20025;-68
2023/04/21 14:10:58;;;;;;;19.88;14.45;;;;;;;;;;5032659;28;20103;-67
2023/04/21 14:13:29;;;;;;;21.35;14.98;;;;;;;;;;5014497;28;20477;-66
2023/04/21 14:15:55;;;;;;;19.52;14.50;;;;;;;;;;5032208;28;20025;-67